Terminal Aerodrome Forecast
Issued by NWS Upton, NY

Home | Current Version | Previous Version | Text Only | Print | Product List | Glossary On
Versions: 1 2 3 4 5 6 7 8 9 10 11 12 13 14 15 16 17 18 19 20 21 22 23 24 25 26 27 28 29 30
000
FTUS41 KOKX 191434 AAB
TAFEWR
TAF AMD
KEWR 191434Z 1915/2018 09007KT P6SM BKN250
     FM191700 11010KT P6SM BKN250
     FM200200 09010KT P6SM FEW025 BKN120
     FM200500 08017G23KT 6SM -RA SCT025 OVC100
     FM201100 08018G24KT 3SM -RA BR OVC015
     FM201400 09020G27KT 1SM RA BR OVC007=

USA.gov is the U.S. government's official web portal to all federal, state and local government web resources and services.